sensor_id;sensor_type;location;lat;lon;timestamp;temperature;humidity
36654;DHT22;22650;49.350;20.898;2022-10-13T00:00:18;2.20;99.90
36654;DHT22;22650;49.350;20.898;2022-10-13T00:02:52;2.20;99.90
36654;DHT22;22650;49.350;20.898;2022-10-13T00:05:25;2.20;99.90
36654;DHT22;22650;49.350;20.898;2022-10-13T00:07:59;2.20;99.90
36654;DHT22;22650;49.350;20.898;2022-10-13T00:10:35;2.30;99.90
36654;DHT22;22650;49.350;20.898;2022-10-13T00:13:10;2.30;99.90
36654;DHT22;22650;49.350;20.898;2022-10-13T00:15:44;2.30;99.90
36654;DHT22;22650;49.350;20.898;2022-10-13T00:18:19;2.30;99.90
36654;DHT22;22650;49.350;20.898;2022-10-13T00:20:54;2.30;99.90
36654;DHT22;22650;49.350;20.898;2022-10-13T00:23:27;2.30;99.90
36654;DHT22;22650;49.350;20.898;2022-10-13T00:26:02;2.30;99.90
36654;DHT22;22650;49.350;20.898;2022-10-13T00:28:35;2.40;99.90
36654;DHT22;22650;49.350;20.898;2022-10-13T00:31:15;2.40;99.90
36654;DHT22;22650;49.350;20.898;2022-10-13T00:33:50;2.40;99.90
36654;DHT22;22650;49.350;20.898;2022-10-13T00:36:24;2.50;99.90
36654;DHT22;22650;49.350;20.898;2022-10-13T00:38:57;2.50;99.90
36654;DHT22;22650;49.350;20.898;2022-10-13T00:41:30;2.50;99.90
36654;DHT22;22650;49.350;20.898;2022-10-13T00:44:04;2.50;99.90
36654;DHT22;22650;49.350;20.898;2022-10-13T00:46:37;2.50;99.90
36654;DHT22;22650;49.350;20.898;2022-10-13T00:49:12;2.60;99.90
36654;DHT22;22650;49.350;20.898;2022-10-13T00:51:50;2.50;99.90
36654;DHT22;22650;49.350;20.898;2022-10-13T00:54:23;2.60;99.90
36654;DHT22;22650;49.350;20.898;2022-10-13T00:56:56;2.60;99.90
36654;DHT22;22650;49.350;20.898;2022-10-13T00:59:29;2.60;99.90
36654;DHT22;22650;49.350;20.898;2022-10-13T01:02:04;2.60;99.90
36654;DHT22;22650;49.350;20.898;2022-10-13T01:04:40;2.60;99.90
36654;DHT22;22650;49.350;20.898;2022-10-13T01:07:14;2.60;99.90
36654;DHT22;22650;49.350;20.898;2022-10-13T01:09:47;2.60;99.90
36654;DHT22;22650;49.350;20.898;2022-10-13T01:12:24;2.70;99.90
36654;DHT22;22650;49.350;20.898;2022-10-13T01:15:02;2.70;99.90
36654;DHT22;22650;49.350;20.898;2022-10-13T01:17:40;2.70;99.90
36654;DHT22;22650;49.350;20.898;2022-10-13T01:20:29;2.70;99.90
36654;DHT22;22650;49.350;20.898;2022-10-13T01:23:11;2.70;99.90
36654;DHT22;22650;49.350;20.898;2022-10-13T01:25:54;2.70;99.90
36654;DHT22;22650;49.350;20.898;2022-10-13T01:28:35;2.70;99.90
36654;DHT22;22650;49.350;20.898;2022-10-13T01:31:13;2.70;99.90
36654;DHT22;22650;49.350;20.898;2022-10-13T01:33:48;2.80;99.90
36654;DHT22;22650;49.350;20.898;2022-10-13T01:36:30;2.80;99.90
36654;DHT22;22650;49.350;20.898;2022-10-13T01:39:06;2.80;99.90
36654;DHT22;22650;49.350;20.898;2022-10-13T01:41:40;2.80;99.90
36654;DHT22;22650;49.350;20.898;2022-10-13T01:44:16;2.80;99.90
36654;DHT22;22650;49.350;20.898;2022-10-13T01:46:57;2.70;99.90
36654;DHT22;22650;49.350;20.898;2022-10-13T01:49:33;2.70;99.90
36654;DHT22;22650;49.350;20.898;2022-10-13T01:52:08;2.80;99.90
36654;DHT22;22650;49.350;20.898;2022-10-13T01:54:41;2.80;99.90
36654;DHT22;22650;49.350;20.898;2022-10-13T01:57:28;2.80;99.90
36654;DHT22;22650;49.350;20.898;2022-10-13T02:00:04;2.80;99.90
36654;DHT22;22650;49.350;20.898;2022-10-13T02:02:51;2.90;99.90
36654;DHT22;22650;49.350;20.898;2022-10-13T02:05:28;2.90;99.90
36654;DHT22;22650;49.350;20.898;2022-10-13T02:08:07;2.80;99.90
36654;DHT22;22650;49.350;20.898;2022-10-13T02:10:43;2.90;99.90
36654;DHT22;22650;49.350;20.898;2022-10-13T02:13:18;2.90;99.90
36654;DHT22;22650;49.350;20.898;2022-10-13T02:15:54;2.90;99.90
36654;DHT22;22650;49.350;20.898;2022-10-13T02:18:32;2.90;99.90
36654;DHT22;22650;49.350;20.898;2022-10-13T02:21:10;2.90;99.90
36654;DHT22;22650;49.350;20.898;2022-10-13T02:23:43;3.00;99.90
36654;DHT22;22650;49.350;20.898;2022-10-13T02:26:17;2.90;99.90
36654;DHT22;22650;49.350;20.898;2022-10-13T02:28:54;3.00;99.90
36654;DHT22;22650;49.350;20.898;2022-10-13T02:31:27;3.00;99.90
36654;DHT22;22650;49.350;20.898;2022-10-13T02:34:01;2.90;99.90
36654;DHT22;22650;49.350;20.898;2022-10-13T02:36:34;3.00;99.90
36654;DHT22;22650;49.350;20.898;2022-10-13T02:39:09;3.00;99.90
36654;DHT22;22650;49.350;20.898;2022-10-13T02:41:42;3.00;99.90
36654;DHT22;22650;49.350;20.898;2022-10-13T02:44:15;3.00;99.90
36654;DHT22;22650;49.350;20.898;2022-10-13T02:46:48;3.00;99.90
36654;DHT22;22650;49.350;20.898;2022-10-13T02:49:23;3.00;99.90
36654;DHT22;22650;49.350;20.898;2022-10-13T02:51:56;3.00;99.90
36654;DHT22;22650;49.350;20.898;2022-10-13T02:54:29;3.00;99.90
36654;DHT22;22650;49.350;20.898;2022-10-13T02:57:02;3.00;99.90
36654;DHT22;22650;49.350;20.898;2022-10-13T02:59:35;3.00;99.90
36654;DHT22;22650;49.350;20.898;2022-10-13T03:02:08;3.00;99.90
36654;DHT22;22650;49.350;20.898;2022-10-13T03:04:43;3.00;99.90
36654;DHT22;22650;49.350;20.898;2022-10-13T03:07:16;3.00;99.90
36654;DHT22;22650;49.350;20.898;2022-10-13T03:09:49;3.00;99.90
36654;DHT22;22650;49.350;20.898;2022-10-13T03:12:22;3.00;99.90
36654;DHT22;22650;49.350;20.898;2022-10-13T03:14:55;3.00;99.90
36654;DHT22;22650;49.350;20.898;2022-10-13T03:17:28;3.10;99.90
36654;DHT22;22650;49.350;20.898;2022-10-13T03:20:03;3.00;99.90
36654;DHT22;22650;49.350;20.898;2022-10-13T03:22:37;3.10;99.90
36654;DHT22;22650;49.350;20.898;2022-10-13T03:25:10;3.10;99.90
36654;DHT22;22650;49.350;20.898;2022-10-13T03:27:45;3.10;99.90
36654;DHT22;22650;49.350;20.898;2022-10-13T03:30:18;3.10;99.90
36654;DHT22;22650;49.350;20.898;2022-10-13T03:32:52;3.10;99.90
36654;DHT22;22650;49.350;20.898;2022-10-13T03:35:26;3.10;99.90
36654;DHT22;22650;49.350;20.898;2022-10-13T03:37:59;3.10;99.90
36654;DHT22;22650;49.350;20.898;2022-10-13T03:40:34;3.10;99.90
36654;DHT22;22650;49.350;20.898;2022-10-13T03:43:07;3.10;99.90
36654;DHT22;22650;49.350;20.898;2022-10-13T03:45:40;3.20;99.90
36654;DHT22;22650;49.350;20.898;2022-10-13T03:48:13;3.20;99.90
36654;DHT22;22650;49.350;20.898;2022-10-13T03:50:47;3.20;99.90
36654;DHT22;22650;49.350;20.898;2022-10-13T03:53:20;3.20;99.90
36654;DHT22;22650;49.350;20.898;2022-10-13T03:55:54;3.20;99.90
36654;DHT22;22650;49.350;20.898;2022-10-13T03:58:27;3.20;99.90
36654;DHT22;22650;49.350;20.898;2022-10-13T04:01:01;3.30;99.90
36654;DHT22;22650;49.350;20.898;2022-10-13T04:03:35;3.20;99.90
36654;DHT22;22650;49.350;20.898;2022-10-13T04:06:09;3.30;99.90
36654;DHT22;22650;49.350;20.898;2022-10-13T04:08:43;3.30;99.90
36654;DHT22;22650;49.350;20.898;2022-10-13T04:11:18;3.20;99.90
36654;DHT22;22650;49.350;20.898;2022-10-13T04:13:55;3.20;99.90
36654;DHT22;22650;49.350;20.898;2022-10-13T04:16:29;3.20;99.90
36654;DHT22;22650;49.350;20.898;2022-10-13T04:19:03;3.20;99.90
36654;DHT22;22650;49.350;20.898;2022-10-13T04:21:38;3.20;99.90
36654;DHT22;22650;49.350;20.898;2022-10-13T04:24:11;3.20;99.90
36654;DHT22;22650;49.350;20.898;2022-10-13T04:26:45;3.10;99.90
36654;DHT22;22650;49.350;20.898;2022-10-13T04:29:18;3.10;99.90
36654;DHT22;22650;49.350;20.898;2022-10-13T04:31:55;3.20;99.90
36654;DHT22;22650;49.350;20.898;2022-10-13T04:34:30;3.10;99.90
36654;DHT22;22650;49.350;20.898;2022-10-13T04:37:05;3.20;99.90
36654;DHT22;22650;49.350;20.898;2022-10-13T04:39:38;3.10;99.90
36654;DHT22;22650;49.350;20.898;2022-10-13T04:42:11;3.10;99.90
36654;DHT22;22650;49.350;20.898;2022-10-13T04:44:44;3.10;99.90
36654;DHT22;22650;49.350;20.898;2022-10-13T04:47:21;3.10;99.90
36654;DHT22;22650;49.350;20.898;2022-10-13T04:49:54;3.10;99.90
36654;DHT22;22650;49.350;20.898;2022-10-13T04:52:29;3.10;99.90
36654;DHT22;22650;49.350;20.898;2022-10-13T04:55:02;3.10;99.90
36654;DHT22;22650;49.350;20.898;2022-10-13T04:57:35;3.10;99.90
36654;DHT22;22650;49.350;20.898;2022-10-13T05:00:08;3.10;99.90
36654;DHT22;22650;49.350;20.898;2022-10-13T05:02:42;3.10;99.90
36654;DHT22;22650;49.350;20.898;2022-10-13T05:05:15;3.10;99.90
36654;DHT22;22650;49.350;20.898;2022-10-13T05:07:49;3.10;99.90
36654;DHT22;22650;49.350;20.898;2022-10-13T05:10:22;3.20;99.90
36654;DHT22;22650;49.350;20.898;2022-10-13T05:12:55;3.20;99.90
36654;DHT22;22650;49.350;20.898;2022-10-13T05:15:29;3.10;99.90
36654;DHT22;22650;49.350;20.898;2022-10-13T05:18:02;3.10;99.90
36654;DHT22;22650;49.350;20.898;2022-10-13T05:20:35;3.10;99.90
36654;DHT22;22650;49.350;20.898;2022-10-13T05:23:09;3.10;99.90
36654;DHT22;22650;49.350;20.898;2022-10-13T05:25:42;3.10;99.90
36654;DHT22;22650;49.350;20.898;2022-10-13T05:28:17;3.10;99.90
36654;DHT22;22650;49.350;20.898;2022-10-13T05:30:51;3.10;99.90
36654;DHT22;22650;49.350;20.898;2022-10-13T05:33:24;3.10;99.90
36654;DHT22;22650;49.350;20.898;2022-10-13T05:36:01;3.10;99.90
36654;DHT22;22650;49.350;20.898;2022-10-13T05:38:35;3.10;99.90
36654;DHT22;22650;49.350;20.898;2022-10-13T05:41:09;3.10;99.90
36654;DHT22;22650;49.350;20.898;2022-10-13T05:43:43;3.10;99.90
36654;DHT22;22650;49.350;20.898;2022-10-13T05:46:16;3.10;99.90
36654;DHT22;22650;49.350;20.898;2022-10-13T05:48:49;3.10;99.90
36654;DHT22;22650;49.350;20.898;2022-10-13T05:51:24;3.10;99.90
36654;DHT22;22650;49.350;20.898;2022-10-13T05:54:00;3.10;99.90
36654;DHT22;22650;49.350;20.898;2022-10-13T05:56:35;3.20;99.90
36654;DHT22;22650;49.350;20.898;2022-10-13T05:59:09;3.20;99.90
36654;DHT22;22650;49.350;20.898;2022-10-13T06:01:44;3.20;99.90
36654;DHT22;22650;49.350;20.898;2022-10-13T06:04:19;3.20;99.90
36654;DHT22;22650;49.350;20.898;2022-10-13T06:06:53;3.30;99.90
36654;DHT22;22650;49.350;20.898;2022-10-13T06:09:28;3.30;99.90
36654;DHT22;22650;49.350;20.898;2022-10-13T06:12:05;3.30;99.90
36654;DHT22;22650;49.350;20.898;2022-10-13T06:14:38;3.40;99.90
36654;DHT22;22650;49.350;20.898;2022-10-13T06:17:15;3.40;99.90
36654;DHT22;22650;49.350;20.898;2022-10-13T06:19:48;3.40;99.90
36654;DHT22;22650;49.350;20.898;2022-10-13T06:22:21;3.40;99.90
36654;DHT22;22650;49.350;20.898;2022-10-13T06:24:56;3.50;99.90
36654;DHT22;22650;49.350;20.898;2022-10-13T06:27:29;3.50;99.90
36654;DHT22;22650;49.350;20.898;2022-10-13T06:30:03;3.50;99.90
36654;DHT22;22650;49.350;20.898;2022-10-13T06:32:36;3.60;99.90
36654;DHT22;22650;49.350;20.898;2022-10-13T06:35:09;3.60;99.90
36654;DHT22;22650;49.350;20.898;2022-10-13T06:37:42;3.70;99.90
36654;DHT22;22650;49.350;20.898;2022-10-13T06:40:18;3.70;99.90
36654;DHT22;22650;49.350;20.898;2022-10-13T06:42:51;3.80;99.90
36654;DHT22;22650;49.350;20.898;2022-10-13T06:45:26;3.80;99.90
36654;DHT22;22650;49.350;20.898;2022-10-13T06:47:59;3.80;99.90
36654;DHT22;22650;49.350;20.898;2022-10-13T06:50:32;3.90;99.90
36654;DHT22;22650;49.350;20.898;2022-10-13T06:53:11;3.80;99.90
36654;DHT22;22650;49.350;20.898;2022-10-13T06:55:45;3.90;99.90
36654;DHT22;22650;49.350;20.898;2022-10-13T06:58:23;3.90;99.90
36654;DHT22;22650;49.350;20.898;2022-10-13T07:00:56;3.90;99.90
36654;DHT22;22650;49.350;20.898;2022-10-13T07:03:29;4.00;99.90
36654;DHT22;22650;49.350;20.898;2022-10-13T07:06:04;4.00;99.90
36654;DHT22;22650;49.350;20.898;2022-10-13T07:08:37;3.90;99.90
36654;DHT22;22650;49.350;20.898;2022-10-13T07:11:12;4.00;99.90
36654;DHT22;22650;49.350;20.898;2022-10-13T07:13:52;4.10;99.90
36654;DHT22;22650;49.350;20.898;2022-10-13T07:16:25;4.20;99.90
36654;DHT22;22650;49.350;20.898;2022-10-13T07:18:59;4.20;99.90
36654;DHT22;22650;49.350;20.898;2022-10-13T07:21:32;4.30;99.90
36654;DHT22;22650;49.350;20.898;2022-10-13T07:24:05;4.40;99.90
36654;DHT22;22650;49.350;20.898;2022-10-13T07:26:40;4.50;99.90
36654;DHT22;22650;49.350;20.898;2022-10-13T07:29:13;4.50;99.90
36654;DHT22;22650;49.350;20.898;2022-10-13T07:31:46;4.60;99.90
36654;DHT22;22650;49.350;20.898;2022-10-13T07:34:20;4.60;99.90
36654;DHT22;22650;49.350;20.898;2022-10-13T07:36:53;4.70;99.90
36654;DHT22;22650;49.350;20.898;2022-10-13T07:39:26;4.80;99.90
36654;DHT22;22650;49.350;20.898;2022-10-13T07:42:00;4.90;99.90
36654;DHT22;22650;49.350;20.898;2022-10-13T07:44:34;5.00;99.90
36654;DHT22;22650;49.350;20.898;2022-10-13T07:47:07;5.10;99.90
